Time;durP1;ratioP1;P1;durP2;ratioP2;P2;SDS_P1;SDS_P2;PMS_P1;PMS_P2;Temp;Humidity;BMP_temperature;BMP_pressure;BME280_temperature;BME280_humidity;BME280_pressure;Samples;Min_cycle;Max_cycle;Signal;HPM_P1;HPM_P2
2021/07/14 00:00:29;;;;;;;;;;;;;;;21.52;53.90;100862.38;459018;115;923187;-67
2021/07/14 00:01:33;;;;;;;;;;;;;;;21.48;53.91;100861.28;458923;115;922738;-67
2021/07/14 00:02:37;;;;;;;;;;;;;;;21.42;53.92;100862.39;456790;115;922700;-68
2021/07/14 00:03:40;;;;;;;;;;;;;;;21.36;54.06;100858.80;458272;115;922691;-68
2021/07/14 00:04:45;;;;;;;;;;;;;;;21.32;54.10;100865.19;457849;115;922684;-67
2021/07/14 00:05:48;;;;;;;;;;;;;;;21.25;54.21;100865.47;458542;115;922668;-67
2021/07/14 00:06:52;;;;;;;;;;;;;;;21.21;54.41;100861.59;458951;115;923642;-66
2021/07/14 00:07:56;;;;;;;;;;;;;;;21.18;54.57;100860.20;459857;115;922748;-67
2021/07/14 00:08:59;;;;;;;;;;;;;;;21.18;54.61;100853.81;459225;115;922646;-67
2021/07/14 00:10:08;;;;;;;;;;;;;;;21.15;54.68;100857.99;458671;115;922531;-66
2021/07/14 00:11:11;;;;;;;;;;;;;;;21.12;54.75;100855.73;458641;115;922663;-66
2021/07/14 00:12:16;;;;;;;;;;;;;;;21.09;54.79;100861.01;459486;115;923138;-69
2021/07/14 00:14:57;;;;;;;;;;;;;;;21.11;55.13;100862.41;483193;107;922676;-66
2021/07/14 00:22:14;;;;;;;;;;;;;;;20.85;55.77;100871.80;457872;115;921758;-68
2021/07/14 00:23:18;;;;;;;;;;;;;;;20.88;55.81;100867.66;470152;111;921508;-68
2021/07/14 00:24:21;;;;;;;;;;;;;;;20.89;55.83;100866.56;476538;110;922784;-67
2021/07/14 00:25:24;;;;;;;;;;;;;;;20.90;55.82;100870.97;475665;109;922513;-66
2021/07/14 00:26:27;;;;;;;;;;;;;;;20.91;55.88;100862.38;476200;109;923156;-65
2021/07/14 00:27:30;;;;;;;;;;;;;;;20.90;55.89;100869.03;476389;111;922944;-69
2021/07/14 00:28:35;;;;;;;;;;;;;;;20.91;55.93;100873.47;476187;109;922677;-69
2021/07/14 00:29:59;;;;;;;;;;;;;;;20.92;56.02;100875.14;475551;110;921459;-66
2021/07/14 00:31:02;;;;;;;;;;;;;;;20.94;56.02;100881.25;476979;109;921598;-67
2021/07/14 00:32:09;;;;;;;;;;;;;;;20.97;55.86;100872.37;477903;109;921436;-68
2021/07/14 00:33:12;;;;;;;;;;;;;;;20.99;55.67;100872.94;476625;109;921943;-68
2021/07/14 00:34:15;;;;;;;;;;;;;;;21.01;55.48;100875.41;476297;110;922653;-67
2021/07/14 00:35:18;;;;;;;;;;;;;;;21.02;55.46;100880.69;476631;110;922653;-66
2021/07/14 00:36:22;;;;;;;;;;;;;;;21.00;55.44;100871.83;477680;110;922696;-67
2021/07/14 00:37:25;;;;;;;;;;;;;;;20.98;55.38;100876.81;477728;109;923540;-67
2021/07/14 00:38:29;;;;;;;;;;;;;;;20.97;55.26;100877.08;477351;110;924598;-68
2021/07/14 00:39:32;;;;;;;;;;;;;;;20.94;55.07;100875.71;477852;109;922693;-64
2021/07/14 00:40:35;;;;;;;;;;;;;;;20.94;54.92;100874.88;476751;109;922644;-67
2021/07/14 00:41:38;;;;;;;;;;;;;;;20.93;54.82;100874.04;476778;111;922729;-66
2021/07/14 00:42:41;;;;;;;;;;;;;;;;;;475669;109;922586;-66
2021/07/14 00:43:44;;;;;;;;;;;;;;;20.97;54.58;100879.85;476179;109;922554;-64
2021/07/14 00:44:48;;;;;;;;;;;;;;;20.97;54.52;100874.31;476106;111;922720;-67
2021/07/14 00:45:51;;;;;;;;;;;;;;;20.97;54.47;100880.69;477700;109;922704;-66
2021/07/14 00:46:55;;;;;;;;;;;;;;;20.97;54.44;100877.08;476101;109;921557;-67
2021/07/14 00:48:00;;;;;;;;;;;;;;;20.95;54.48;100876.55;475698;109;921705;-66
2021/07/14 00:49:04;;;;;;;;;;;;;;;20.94;54.56;100872.10;475842;108;921509;-67
2021/07/14 00:50:07;;;;;;;;;;;;;;;20.92;54.59;100872.37;475381;111;922652;-67
2021/07/14 00:51:11;;;;;;;;;;;;;;;20.89;54.58;100872.10;477332;109;922699;-64
2021/07/14 00:52:14;;;;;;;;;;;;;;;20.87;54.64;100866.83;477230;110;923683;-66
2021/07/14 00:53:17;;;;;;;;;;;;;;;20.84;54.67;100872.90;476757;111;922518;-67
2021/07/14 00:54:21;;;;;;;;;;;;;;;20.82;54.80;100877.91;477344;109;922651;-64
2021/07/14 00:55:24;;;;;;;;;;;;;;;20.79;54.83;100872.90;476795;109;922701;-66
2021/07/14 00:56:28;;;;;;;;;;;;;;;20.76;54.90;100870.69;477518;110;922671;-64
2021/07/14 00:57:32;;;;;;;;;;;;;;;20.73;55.01;100876.80;476855;109;922681;-67
2021/07/14 00:58:35;;;;;;;;;;;;;;;20.70;55.09;100877.33;477397;109;922987;-67
2021/07/14 00:59:39;;;;;;;;;;;;;;;20.67;55.21;100877.89;478327;109;921517;-67
2021/07/14 01:00:42;;;;;;;;;;;;;;;20.62;55.45;100875.92;477936;110;922868;-68
2021/07/14 01:01:46;;;;;;;;;;;;;;;20.59;55.62;100881.19;477536;110;923440;-67
2021/07/14 01:02:50;;;;;;;;;;;;;;;20.56;55.80;100878.98;478282;109;922711;-65
2021/07/14 01:04:10;;;;;;;;;;;;;;;20.54;55.96;100878.41;477078;108;922731;-66
2021/07/14 01:05:18;;;;;;;;;;;;;;;20.53;56.11;100887.82;476148;109;922656;-65
2021/07/14 01:06:29;;;;;;;;;;;;;;;20.51;56.19;100879.77;475890;109;922674;-66
2021/07/14 01:07:40;;;;;;;;;;;;;;;20.51;56.35;100876.20;464855;114;923231;-65
2021/07/14 01:08:45;;;;;;;;;;;;;;;20.50;56.42;100877.30;476448;109;923162;-66
2021/07/14 01:10:06;;;;;;;;;;;;;;;20.50;56.52;100880.91;476752;109;922623;-65
2021/07/14 01:11:11;;;;;;;;;;;;;;;20.50;56.49;100877.30;476403;109;922657;-66
2021/07/14 01:12:26;;;;;;;;;;;;;;;20.47;56.57;100883.37;476829;110;922674;-66
2021/07/14 01:13:35;;;;;;;;;;;;;;;20.42;56.66;100877.81;476207;110;923125;-67
2021/07/14 01:14:47;;;;;;;;;;;;;;;20.36;56.82;100877.80;476396;109;922636;-67
2021/07/14 01:15:52;;;;;;;;;;;;;;;20.34;56.93;100876.42;476239;109;922640;-66
2021/07/14 01:17:06;;;;;;;;;;;;;;;20.33;57.04;100883.06;476031;111;921532;-68
2021/07/14 01:18:20;;;;;;;;;;;;;;;20.31;57.13;100886.09;477090;110;922014;-66
2021/07/14 01:19:30;;;;;;;;;;;;;;;20.32;57.25;100887.77;477774;110;921560;-66
2021/07/14 01:20:48;;;;;;;;;;;;;;;20.34;57.31;100880.00;476203;111;922573;-65
2021/07/14 01:21:53;;;;;;;;;;;;;;;20.36;57.27;100882.51;477385;110;923141;-66
2021/07/14 01:22:59;;;;;;;;;;;;;;;20.35;57.27;100892.75;476566;111;922614;-67
2021/07/14 01:24:19;;;;;;;;;;;;;;;20.34;57.28;100882.77;470802;111;923193;-66
2021/07/14 01:25:24;;;;;;;;;;;;;;;20.34;57.30;100885.54;476040;111;922471;-66
2021/07/14 01:26:44;;;;;;;;;;;;;;;20.37;57.09;100889.72;476957;110;922622;-66
2021/07/14 01:27:49;;;;;;;;;;;;;;;20.40;56.84;100892.77;473899;109;921819;-66
2021/07/14 01:28:54;;;;;;;;;;;;;;;20.44;56.75;100895.84;475379;111;922678;-65
2021/07/14 01:29:59;;;;;;;;;;;;;;;20.44;56.70;100895.00;475036;111;922609;-66
2021/07/14 01:31:02;;;;;;;;;;;;;;;20.42;56.65;100894.44;476693;110;923140;-67
2021/07/14 01:32:07;;;;;;;;;;;;;;;20.39;56.60;100893.89;474892;109;922643;-65
2021/07/14 01:33:11;;;;;;;;;;;;;;;20.38;56.63;100892.22;476191;111;923015;-65
2021/07/14 01:34:15;;;;;;;;;;;;;;;20.36;56.60;100894.42;475551;109;922667;-66
2021/07/14 01:35:20;;;;;;;;;;;;;;;20.36;56.67;100899.96;475682;109;922635;-65
2021/07/14 01:36:24;;;;;;;;;;;;;;;20.35;56.63;100895.52;477537;109;922635;-66
2021/07/14 01:37:28;;;;;;;;;;;;;;;20.37;56.61;100890.55;477331;109;923114;-66
2021/07/14 01:38:33;;;;;;;;;;;;;;;20.39;56.53;100890.29;476813;111;922633;-66
2021/07/14 01:39:36;;;;;;;;;;;;;;;20.37;56.45;100890.55;476996;110;922726;-65
2021/07/14 01:40:40;;;;;;;;;;;;;;;20.35;56.42;100887.21;476259;111;922959;-66
2021/07/14 01:41:45;;;;;;;;;;;;;;;20.33;56.47;100889.44;476128;111;923080;-65
2021/07/14 01:42:53;;;;;;;;;;;;;;;20.29;56.53;100888.27;476326;110;922876;-67
2021/07/14 01:43:58;;;;;;;;;;;;;;;20.26;56.57;100888.82;477549;110;923856;-67
2021/07/14 01:45:02;;;;;;;;;;;;;;;20.23;56.69;100891.31;476902;110;921676;-66
2021/07/14 01:46:06;;;;;;;;;;;;;;;20.19;56.80;100896.53;477899;111;922643;-66
2021/07/14 01:47:10;;;;;;;;;;;;;;;20.16;56.96;100887.95;478188;109;922699;-66
2021/07/14 01:48:14;;;;;;;;;;;;;;;20.12;57.11;100895.98;473890;110;922691;-65
2021/07/14 01:49:18;;;;;;;;;;;;;;;20.10;57.24;100902.88;474400;109;923087;-66
2021/07/14 01:50:22;;;;;;;;;;;;;;;20.09;57.37;100892.89;475031;111;922735;-66
2021/07/14 01:51:26;;;;;;;;;;;;;;;20.05;57.50;100898.15;474366;109;922589;-67
2021/07/14 01:52:30;;;;;;;;;;;;;;;20.05;57.66;100903.69;474647;110;921509;-67
2021/07/14 01:53:34;;;;;;;;;;;;;;;20.06;57.74;100902.59;474911;111;921454;-67
2021/07/14 01:54:38;;;;;;;;;;;;;;;20.06;57.74;100896.22;475818;111;921572;-67
2021/07/14 01:55:43;;;;;;;;;;;;;;;20.06;57.69;100897.05;474751;110;921456;-66
2021/07/14 01:56:48;;;;;;;;;;;;;;;20.05;57.73;100902.85;468461;112;921722;-68
2021/07/14 01:57:53;;;;;;;;;;;;;;;20.04;57.79;100899.25;470085;111;921712;-67
2021/07/14 01:58:56;;;;;;;;;;;;;;;20.03;57.83;100897.58;476088;110;921454;-68
2021/07/14 02:00:00;;;;;;;;;;;;;;;20.01;57.84;100898.97;476211;109;921531;-66
2021/07/14 02:01:05;;;;;;;;;;;;;;;19.97;57.86;100893.11;476440;109;921554;-66
2021/07/14 02:02:10;;;;;;;;;;;;;;;19.94;57.98;100900.03;476887;109;921504;-66
2021/07/14 02:04:32;;;;;;;;;;;;;;;19.92;58.14;100893.09;477668;109;921535;-66
2021/07/14 02:05:37;;;;;;;;;;;;;;;19.90;58.26;100889.78;476917;110;921403;-65
2021/07/14 02:06:42;;;;;;;;;;;;;;;19.89;58.34;100900.02;476586;111;922652;-66
2021/07/14 02:07:46;;;;;;;;;;;;;;;19.89;58.35;100894.48;477069;111;923112;-66
2021/07/14 02:08:49;;;;;;;;;;;;;;;19.90;58.34;100895.31;476834;109;923564;-66
2021/07/14 02:09:54;;;;;;;;;;;;;;;19.90;58.31;100895.31;473727;110;923106;-67
2021/07/14 02:10:59;;;;;;;;;;;;;;;19.90;58.26;100895.31;472646;109;924760;-73
2021/07/14 02:12:03;;;;;;;;;;;;;;;19.90;58.23;100887.81;474554;110;922708;-73
2021/07/14 02:13:08;;;;;;;;;;;;;;;19.91;58.21;100894.19;474254;110;922659;-71
2021/07/14 02:14:19;;;;;;;;;;;;;;;19.90;58.17;100889.78;475800;110;923554;-71
2021/07/14 02:15:26;;;;;;;;;;;;;;;19.90;58.11;100896.12;473989;111;923149;-73
2021/07/14 02:16:30;;;;;;;;;;;;;;;19.90;58.10;100896.12;475627;111;921544;-73
2021/07/14 02:17:35;;;;;;;;;;;;;;;19.90;58.06;100898.89;475764;110;922560;-72
2021/07/14 02:18:41;;;;;;;;;;;;;;;19.91;58.03;100894.19;476594;109;922815;-71
2021/07/14 02:19:46;;;;;;;;;;;;;;;19.93;57.98;100900.30;475711;111;922933;-72
2021/07/14 02:20:50;;;;;;;;;;;;;;;19.92;57.96;100904.16;474361;111;922824;-71
2021/07/14 02:21:53;;;;;;;;;;;;;;;19.91;58.00;100899.72;476315;109;921632;-73
2021/07/14 02:22:57;;;;;;;;;;;;;;;19.91;57.97;100903.33;476157;111;922667;-72
2021/07/14 02:24:01;;;;;;;;;;;;;;;19.92;57.97;100895.86;476108;110;922697;-68
2021/07/14 02:25:06;;;;;;;;;;;;;;;19.92;57.99;100904.16;475482;111;921550;-71
2021/07/14 02:26:09;;;;;;;;;;;;;;;19.93;58.00;100903.06;476675;110;922645;-70
2021/07/14 02:27:15;;;;;;;;;;;;;;;19.94;57.97;100896.44;476065;110;922736;-72
2021/07/14 02:28:19;;;;;;;;;;;;;;;19.96;57.99;100899.75;477299;109;923243;-71
2021/07/14 02:29:23;;;;;;;;;;;;;;;19.96;57.97;100900.58;475063;109;922687;-72
2021/07/14 02:30:26;;;;;;;;;;;;;;;19.97;57.97;100904.19;475691;110;922613;-72
2021/07/14 02:31:30;;;;;;;;;;;;;;;19.99;58.02;100901.99;475129;109;922680;-73
2021/07/14 02:32:34;;;;;;;;;;;;;;;20.01;58.05;100905.34;475317;111;922645;-73
2021/07/14 02:33:37;;;;;;;;;;;;;;;20.02;58.03;100897.84;475465;111;921532;-72
2021/07/14 02:34:43;;;;;;;;;;;;;;;20.04;58.07;100909.48;484738;109;921497;-72
2021/07/14 02:35:48;;;;;;;;;;;;;;;20.03;58.02;100905.88;483584;109;921607;-72
2021/07/14 02:36:52;;;;;;;;;;;;;;;20.03;58.06;100903.11;475279;111;921446;-73
2021/07/14 02:38:13;;;;;;;;;;;;;;;20.04;58.11;100906.72;476331;110;922644;-72
2021/07/14 02:39:18;;;;;;;;;;;;;;;20.05;58.16;100902.85;475774;110;922621;-73
2021/07/14 02:40:30;;;;;;;;;;;;;;;20.06;58.16;100902.59;476028;110;921771;-73
2021/07/14 02:41:38;;;;;;;;;;;;;;;20.06;58.16;100908.13;476607;111;921496;-73
2021/07/14 02:42:42;;;;;;;;;;;;;;;20.08;58.19;100902.30;477006;110;921403;-73
2021/07/14 02:43:49;;;;;;;;;;;;;;;20.05;58.19;100903.69;476922;110;921478;-73
2021/07/14 02:44:53;;;;;;;;;;;;;;;20.04;58.26;100904.78;476504;109;921564;-73
2021/07/14 02:45:57;;;;;;;;;;;;;;;20.03;58.28;100905.88;477048;111;921772;-74
2021/07/14 02:47:01;;;;;;;;;;;;;;;20.03;58.25;100905.88;477659;111;922074;-73
2021/07/14 02:48:04;;;;;;;;;;;;;;;20.02;58.24;100909.74;477715;111;921451;-73
2021/07/14 02:49:10;;;;;;;;;;;;;;;20.01;58.28;100898.97;477604;110;921916;-72
2021/07/14 02:50:17;;;;;;;;;;;;;;;19.99;58.41;100905.59;476771;111;921457;-74
2021/07/14 02:51:22;;;;;;;;;;;;;;;20.01;58.55;100902.56;475590;111;921398;-73
2021/07/14 02:52:28;;;;;;;;;;;;;;;20.04;58.61;100902.02;474535;109;921454;-73
2021/07/14 02:53:33;;;;;;;;;;;;;;;20.08;58.59;100905.91;474291;110;921520;-72
2021/07/14 02:54:38;;;;;;;;;;;;;;;20.14;58.56;100899.28;473924;111;922381;-72
2021/07/14 02:55:43;;;;;;;;;;;;;;;20.19;58.51;100902.08;476106;109;921442;-72
2021/07/14 02:56:48;;;;;;;;;;;;;;;20.24;58.46;100907.63;475992;110;922003;-73
2021/07/14 02:57:54;;;;;;;;;;;;;;;20.29;58.45;100904.87;475740;110;922993;-72
2021/07/14 02:58:59;;;;;;;;;;;;;;;20.33;58.43;100908.83;475656;111;923281;-72
2021/07/14 03:00:04;;;;;;;;;;;;;;;20.38;58.47;100908.84;475289;109;923803;-72
2021/07/14 03:01:07;;;;;;;;;;;;;;;20.43;58.42;100898.88;475267;111;921517;-73
2021/07/14 03:02:11;;;;;;;;;;;;;;;20.46;58.39;100904.69;475833;111;922724;-73
2021/07/14 03:03:15;;;;;;;;;;;;;;;20.50;58.31;100907.77;475836;109;922646;-72
2021/07/14 03:04:19;;;;;;;;;;;;;;;20.53;58.23;100907.21;476012;111;923166;-72
2021/07/14 03:05:23;;;;;;;;;;;;;;;20.55;58.19;100903.08;477218;110;922672;-71
2021/07/14 03:06:31;;;;;;;;;;;;;;;20.57;58.15;100911.93;476476;110;922707;-71
2021/07/14 03:07:35;;;;;;;;;;;;;;;20.59;58.14;100901.41;476698;111;922514;-71
2021/07/14 03:08:43;;;;;;;;;;;;;;;20.60;58.15;100905.86;477181;109;921378;-72
2021/07/14 03:09:45;;;;;;;;;;;;;;;20.62;58.22;100905.59;477263;109;923129;-71
2021/07/14 03:10:49;;;;;;;;;;;;;;;20.64;58.19;100911.67;477459;111;922670;-72
2021/07/14 03:11:53;;;;;;;;;;;;;;;20.66;58.14;100912.24;475368;109;921491;-72
2021/07/14 03:13:04;;;;;;;;;;;;;;;20.67;58.06;100911.98;473468;111;922635;-71
2021/07/14 03:14:04;;;;;;;;;;;;;;;20.68;58.06;100913.62;475465;109;922637;-72
2021/07/14 03:15:09;;;;;;;;;;;;;;;20.68;58.10;100908.08;472833;110;923542;-72
2021/07/14 03:16:13;;;;;;;;;;;;;;;20.66;58.14;100909.47;471661;112;922658;-70
2021/07/14 03:17:17;;;;;;;;;;;;;;;20.61;58.23;100913.07;472389;112;922882;-71
2021/07/14 03:18:23;;;;;;;;;;;;;;;20.62;58.45;100909.17;471368;112;923157;-72
2021/07/14 03:19:27;;;;;;;;;;;;;;;20.61;58.50;100909.47;472251;110;921511;-72
2021/07/14 03:20:31;;;;;;;;;;;;;;;20.60;58.49;100902.25;470766;111;922737;-72
2021/07/14 03:21:36;;;;;;;;;;;;;;;20.59;58.54;100908.89;471581;112;922677;-71
2021/07/14 03:22:41;;;;;;;;;;;;;;;20.57;58.61;100911.09;471214;110;921643;-72
2021/07/14 03:23:45;;;;;;;;;;;;;;;20.56;58.71;100907.52;472359;112;924179;-73
2021/07/14 03:24:50;;;;;;;;;;;;;;;20.56;58.83;100910.29;472992;112;922585;-73
2021/07/14 03:25:55;;;;;;;;;;;;;;;20.56;58.94;100913.06;473313;112;923099;-73
2021/07/14 03:27:00;;;;;;;;;;;;;;;20.58;58.92;100908.06;473150;112;923090;-71
2021/07/14 03:28:05;;;;;;;;;;;;;;;20.60;58.87;100916.11;474017;110;922689;-72
2021/07/14 03:29:10;;;;;;;;;;;;;;;20.64;58.85;100912.51;474185;112;922687;-72
2021/07/14 03:30:15;;;;;;;;;;;;;;;20.67;58.80;100905.61;475055;112;922969;-72
2021/07/14 03:31:20;;;;;;;;;;;;;;;20.70;58.69;100910.58;474827;110;922635;-73
2021/07/14 03:32:24;;;;;;;;;;;;;;;20.74;58.56;100911.69;472567;110;922733;-72
2021/07/14 03:33:29;;;;;;;;;;;;;;;20.76;58.33;100915.87;471402;110;923062;-70
2021/07/14 03:34:33;;;;;;;;;;;;;;;20.79;58.06;100904.22;470782;112;921591;-72
2021/07/14 03:35:38;;;;;;;;;;;;;;;20.83;57.71;100903.69;471474;110;923142;-72
2021/07/14 03:36:44;;;;;;;;;;;;;;;20.87;57.40;100910.34;470365;110;921549;-73
2021/07/14 03:37:48;;;;;;;;;;;;;;;20.89;57.18;100914.52;470898;110;921501;-72
2021/07/14 03:38:53;;;;;;;;;;;;;;;20.92;57.02;100911.17;459798;114;921443;-71
2021/07/14 03:39:56;;;;;;;;;;;;;;;20.94;56.98;100919.23;456004;116;921543;-72
2021/07/14 03:41:00;;;;;;;;;;;;;;;20.94;56.93;100917.29;455205;114;921520;-71
2021/07/14 03:42:04;;;;;;;;;;;;;;;20.97;56.97;100919.50;462129;112;921453;-72
2021/07/14 03:43:08;;;;;;;;;;;;;;;20.98;56.98;100921.17;457805;114;921384;-73
2021/07/14 03:44:13;;;;;;;;;;;;;;;20.98;56.91;100921.17;458589;115;921527;-72
2021/07/14 03:45:17;;;;;;;;;;;;;;;20.97;56.82;100918.66;458785;114;921498;-72
2021/07/14 03:46:20;;;;;;;;;;;;;;;20.95;56.85;100918.13;459315;114;921528;-72
2021/07/14 03:47:24;;;;;;;;;;;;;;;20.95;56.95;100918.13;459589;115;921560;-71
2021/07/14 03:48:29;;;;;;;;;;;;;;;20.95;57.01;100923.67;459032;115;921454;-72
2021/07/14 03:49:33;;;;;;;;;;;;;;;20.95;57.01;100923.67;458724;114;922692;-72
2021/07/14 03:50:39;;;;;;;;;;;;;;;20.95;57.04;100923.67;458522;114;921557;-72
2021/07/14 03:51:42;;;;;;;;;;;;;;;20.96;57.11;100920.59;446560;117;922668;-73
2021/07/14 03:52:47;;;;;;;;;;;;;;;20.97;57.15;100919.50;449315;115;923559;-72
2021/07/14 03:53:51;;;;;;;;;;;;;;;21.01;56.96;100923.38;453957;114;921463;-71
2021/07/14 03:54:55;;;;;;;;;;;;;;;21.04;56.82;100922.84;457117;115;923180;-71
2021/07/14 03:55:59;;;;;;;;;;;;;;;21.07;56.75;100930.59;456280;115;922596;-72
2021/07/14 03:57:03;;;;;;;;;;;;;;;21.10;56.60;100930.06;455445;115;922558;-72
2021/07/14 03:58:06;;;;;;;;;;;;;;;21.13;56.52;100926.72;457550;115;921536;-72
2021/07/14 03:59:10;;;;;;;;;;;;;;;21.18;56.44;100934.23;457228;115;921436;-71
2021/07/14 04:00:14;;;;;;;;;;;;;;;21.20;56.41;100932.86;458535;115;921370;-72
2021/07/14 04:01:18;;;;;;;;;;;;;;;21.25;56.41;100929.26;458072;115;923737;-72
2021/07/14 04:02:22;;;;;;;;;;;;;;;21.28;56.34;100928.69;456055;114;922700;-71
2021/07/14 04:03:27;;;;;;;;;;;;;;;21.30;56.36;100933.97;457487;114;922661;-71
2021/07/14 04:04:30;;;;;;;;;;;;;;;21.32;56.40;100940.08;458933;115;923215;-73
2021/07/14 04:05:36;;;;;;;;;;;;;;;21.33;56.40;100936.20;457634;114;921604;-71
2021/07/14 04:06:42;;;;;;;;;;;;;;;21.34;56.37;100944.22;458140;114;921474;-72
2021/07/14 04:07:46;;;;;;;;;;;;;;;21.34;56.29;100941.45;459130;114;923121;-72
2021/07/14 04:08:51;;;;;;;;;;;;;;;21.35;56.17;100943.13;458882;115;922720;-73
2021/07/14 04:09:57;;;;;;;;;;;;;;;21.35;56.08;100939.52;457252;114;922502;-73
2021/07/14 04:11:00;;;;;;;;;;;;;;;21.36;56.15;100943.95;459475;114;922644;-73
2021/07/14 04:12:05;;;;;;;;;;;;;;;21.36;56.13;100942.02;456446;115;922677;-73
2021/07/14 04:13:09;;;;;;;;;;;;;;;21.38;56.11;100942.58;455886;115;922659;-73
2021/07/14 04:14:13;;;;;;;;;;;;;;;21.41;56.19;100935.63;456084;115;922876;-73
2021/07/14 04:15:16;;;;;;;;;;;;;;;21.45;56.08;100945.05;455859;114;921452;-72
2021/07/14 04:16:20;;;;;;;;;;;;;;;21.47;55.66;100938.13;461939;113;921487;-72
2021/07/14 04:17:23;;;;;;;;;;;;;;;21.52;55.45;100931.73;463851;113;922707;-71
2021/07/14 04:18:27;;;;;;;;;;;;;;;21.56;55.39;100932.84;460639;113;922622;-71
2021/07/14 04:19:31;;;;;;;;;;;;;;;21.61;55.27;100935.63;452794;116;922609;-72
2021/07/14 04:20:34;;;;;;;;;;;;;;;21.66;55.14;100945.89;459634;113;922275;-72
2021/07/14 04:21:38;;;;;;;;;;;;;;;21.70;55.05;100935.89;460883;113;921447;-72
2021/07/14 04:22:41;;;;;;;;;;;;;;;21.73;54.87;100936.14;460331;114;921482;-73
2021/07/14 04:23:44;;;;;;;;;;;;;;;21.78;54.67;100938.91;463762;113;921520;-72
2021/07/14 04:24:48;;;;;;;;;;;;;;;21.82;54.64;100934.48;462661;113;921427;-73
2021/07/14 04:25:52;;;;;;;;;;;;;;;21.85;54.68;100933.91;461691;113;921383;-71
2021/07/14 04:26:56;;;;;;;;;;;;;;;21.88;54.70;100938.92;468532;113;921597;-71
2021/07/14 04:27:59;;;;;;;;;;;;;;;21.91;54.69;100937.50;467827;112;921553;-72
2021/07/14 04:29:03;;;;;;;;;;;;;;;21.95;54.72;100938.63;459653;114;921575;-71
2021/07/14 04:30:07;;;;;;;;;;;;;;;21.96;54.70;100937.52;461814;115;921635;-72
2021/07/14 04:31:10;;;;;;;;;;;;;;;21.99;54.70;100937.81;461258;113;921448;-73
2021/07/14 04:32:13;;;;;;;;;;;;;;;22.02;54.66;100937.23;458662;114;921517;-72
2021/07/14 04:33:17;;;;;;;;;;;;;;;22.03;54.43;100936.13;463217;113;921543;-73
2021/07/14 04:34:20;;;;;;;;;;;;;;;22.08;54.30;100942.77;463538;111;921488;-71
2021/07/14 04:35:24;;;;;;;;;;;;;;;22.11;54.20;100937.47;460037;114;921632;-71
2021/07/14 04:36:27;;;;;;;;;;;;;;;22.14;54.29;100939.70;460456;114;921473;-72
2021/07/14 04:37:30;;;;;;;;;;;;;;;22.17;54.38;100941.06;459900;112;921974;-72
2021/07/14 04:38:33;;;;;;;;;;;;;;;22.21;54.44;100944.96;460508;115;921541;-72
2021/07/14 04:39:36;;;;;;;;;;;;;;;22.24;54.37;100938.83;461480;115;923137;-73
2021/07/14 04:40:40;;;;;;;;;;;;;;;22.27;54.26;100943.83;461349;112;921569;-72
2021/07/14 04:41:45;;;;;;;;;;;;;;;22.31;54.06;100944.92;461208;112;922031;-73
2021/07/14 04:42:49;;;;;;;;;;;;;;;22.34;53.78;100941.56;461560;112;922646;-72
2021/07/14 04:43:53;;;;;;;;;;;;;;;22.37;53.71;100949.34;461612;115;921475;-70
2021/07/14 04:44:57;;;;;;;;;;;;;;;22.40;53.68;100934.87;461163;113;921448;-74
2021/07/14 04:46:00;;;;;;;;;;;;;;;22.45;53.73;100943.17;461039;112;922738;-70
2021/07/14 04:47:04;;;;;;;;;;;;;;;22.48;53.81;100937.06;462441;112;923132;-71
2021/07/14 04:48:08;;;;;;;;;;;;;;;22.51;53.91;100935.65;462991;115;922648;-71
2021/07/14 04:49:11;;;;;;;;;;;;;;;22.54;53.85;100935.93;461310;114;922944;-72
2021/07/14 04:50:15;;;;;;;;;;;;;;;22.58;53.78;100933.40;462408;112;922575;-72
2021/07/14 04:51:20;;;;;;;;;;;;;;;22.61;53.79;100930.03;462835;112;923022;-71
2021/07/14 04:52:24;;;;;;;;;;;;;;;22.64;53.73;100935.04;463687;114;922656;-72
2021/07/14 04:53:27;;;;;;;;;;;;;;;22.65;53.78;100929.20;460513;112;922638;-71
2021/07/14 04:54:31;;;;;;;;;;;;;;;22.69;53.71;100940.56;460075;112;922732;-70
2021/07/14 04:55:35;;;;;;;;;;;;;;;22.70;53.69;100931.95;459613;112;922667;-72
2021/07/14 04:56:38;;;;;;;;;;;;;;;22.72;53.71;100943.62;458998;115;922661;-71
2021/07/14 04:57:42;;;;;;;;;;;;;;;22.74;53.70;100944.18;459792;114;922612;-72
2021/07/14 04:58:46;;;;;;;;;;;;;;;22.77;53.73;100943.59;459202;112;922641;-73
2021/07/14 04:59:50;;;;;;;;;;;;;;;22.78;53.83;100942.48;460069;112;923617;-71
2021/07/14 05:00:54;;;;;;;;;;;;;;;22.80;53.87;100940.25;460545;113;922662;-72
2021/07/14 05:01:58;;;;;;;;;;;;;;;22.83;53.84;100942.45;460510;115;922665;-73
2021/07/14 05:03:01;;;;;;;;;;;;;;;22.85;53.85;100940.22;460997;112;922639;-73
2021/07/14 05:04:05;;;;;;;;;;;;;;;22.88;53.86;100938.00;454194;114;921665;-72
2021/07/14 05:05:09;;;;;;;;;;;;;;;22.89;53.96;100937.69;455337;114;921748;-73
2021/07/14 05:06:13;;;;;;;;;;;;;;;22.92;53.92;100936.30;461041;112;923232;-72
2021/07/14 05:07:17;;;;;;;;;;;;;;;22.94;53.96;100937.65;461570;112;922649;-69
2021/07/14 05:08:20;;;;;;;;;;;;;;;22.97;54.03;100939.03;462396;112;921619;-72
2021/07/14 05:09:24;;;;;;;;;;;;;;;22.99;54.01;100945.16;461722;115;923155;-71
2021/07/14 05:10:30;;;;;;;;;;;;;;;23.02;54.10;100936.22;462067;114;921681;-73
2021/07/14 05:11:34;;;;;;;;;;;;;;;23.04;54.21;100931.20;462888;112;921585;-74
2021/07/14 05:12:37;;;;;;;;;;;;;;;23.07;54.10;100933.40;462981;115;922648;-72
2021/07/14 05:13:41;;;;;;;;;;;;;;;23.10;53.47;100943.97;464135;115;924191;-73
2021/07/14 05:14:45;;;;;;;;;;;;;;;23.11;53.15;100932.52;463626;114;921630;-74
2021/07/14 05:15:48;;;;;;;;;;;;;;;23.14;52.81;100939.47;462350;112;921433;-73
2021/07/14 05:16:52;;;;;;;;;;;;;;;23.16;52.52;100932.48;460996;112;921540;-75
2021/07/14 05:17:56;;;;;;;;;;;;;;;23.19;52.32;100937.48;461057;114;921472;-73
2021/07/14 05:19:02;;;;;;;;;;;;;;;23.23;52.14;100940.50;461518;114;921404;-73
2021/07/14 05:20:05;;;;;;;;;;;;;;;23.25;51.83;100939.11;463054;112;921699;-73
2021/07/14 05:21:09;;;;;;;;;;;;;;;23.28;51.61;100935.73;461900;112;921574;-73
2021/07/14 05:22:13;;;;;;;;;;;;;;;23.31;51.46;100934.33;462132;112;921434;-72
2021/07/14 05:23:16;;;;;;;;;;;;;;;23.36;51.41;100939.02;461994;112;922921;-72
2021/07/14 05:24:21;;;;;;;;;;;;;;;23.38;51.39;100940.38;463961;112;921513;-72
2021/07/14 05:25:25;;;;;;;;;;;;;;;23.41;51.12;100936.19;462538;114;922541;-73
2021/07/14 05:26:28;;;;;;;;;;;;;;;23.45;50.76;100934.48;463092;114;922701;-72
2021/07/14 05:27:32;;;;;;;;;;;;;;;23.47;50.39;100935.89;464438;114;921461;-72
2021/07/14 05:28:35;;;;;;;;;;;;;;;23.49;50.22;100933.62;463129;112;922744;-73
2021/07/14 05:29:39;;;;;;;;;;;;;;;23.51;49.96;100936.97;463601;112;922699;-73
2021/07/14 05:30:42;;;;;;;;;;;;;;;23.56;49.44;100941.65;464060;112;922677;-71
2021/07/14 05:31:46;;;;;;;;;;;;;;;23.58;49.07;100934.68;463240;112;922660;-71
2021/07/14 05:32:50;;;;;;;;;;;;;;;23.62;48.68;100938.53;463927;114;922778;-72
2021/07/14 05:33:54;;;;;;;;;;;;;;;23.65;48.48;100943.50;464156;114;923187;-70
2021/07/14 05:34:58;;;;;;;;;;;;;;;23.68;48.26;100944.88;463907;112;922655;-71
2021/07/14 05:36:02;;;;;;;;;;;;;;;23.71;47.95;100940.70;464706;112;922653;-73
2021/07/14 05:37:05;;;;;;;;;;;;;;;23.74;47.93;100937.31;466010;114;921873;-72
2021/07/14 05:38:09;;;;;;;;;;;;;;;23.77;47.83;100933.92;463849;112;922662;-72